地図

経路データ

SID SEASON NUMBER BASIN SUBBASIN NAME ISO_TIME NATURE LAT LON WMO_WIND WMO_PRES WMO_AGENCY TRACK_TYPE DIST2LAND LANDFALL IFLAG USA_AGENCY USA_ATCF_ID USA_LAT USA_LON USA_RECORD USA_STATUS USA_WIND USA_PRES USA_SSHS USA_R34_NE USA_R34_SE USA_R34_SW USA_R34_NW USA_R50_NE USA_R50_SE USA_R50_SW USA_R50_NW USA_R64_NE USA_R64_SE USA_R64_SW USA_R64_NW USA_POCI USA_ROCI USA_RMW USA_EYE TOKYO_LAT TOKYO_LON TOKYO_GRADE TOKYO_WIND TOKYO_PRES TOKYO_R50_DIR TOKYO_R50_LONG TOKYO_R50_SHORT TOKYO_R30_DIR TOKYO_R30_LONG TOKYO_R30_SHORT TOKYO_LAND CMA_LAT CMA_LON CMA_CAT CMA_WIND CMA_PRES HKO_LAT HKO_LON HKO_CAT HKO_WIND HKO_PRES NEWDELHI_LAT NEWDELHI_LON NEWDELHI_GRADE NEWDELHI_WIND NEWDELHI_PRES NEWDELHI_CI NEWDELHI_DP NEWDELHI_POCI REUNION_LAT REUNION_LON REUNION_TYPE REUNION_WIND REUNION_PRES REUNION_TNUM REUNION_CI REUNION_RMW REUNION_R34_NE REUNION_R34_SE REUNION_R34_SW REUNION_R34_NW REUNION_R50_NE REUNION_R50_SE REUNION_R50_SW REUNION_R50_NW REUNION_R64_NE REUNION_R64_SE REUNION_R64_SW REUNION_R64_NW BOM_LAT BOM_LON BOM_TYPE BOM_WIND BOM_PRES BOM_TNUM BOM_CI BOM_RMW BOM_R34_NE BOM_R34_SE BOM_R34_SW BOM_R34_NW BOM_R50_NE BOM_R50_SE BOM_R50_SW BOM_R50_NW BOM_R64_NE BOM_R64_SE BOM_R64_SW BOM_R64_NW BOM_ROCI BOM_POCI BOM_EYE BOM_POS_METHOD BOM_PRES_METHOD NADI_LAT NADI_LON NADI_CAT NADI_WIND NADI_PRES WELLINGTON_LAT WELLINGTON_LON WELLINGTON_WIND WELLINGTON_PRES DS824_LAT DS824_LON DS824_STAGE DS824_WIND DS824_PRES TD9636_LAT TD9636_LON TD9636_STAGE TD9636_WIND TD9636_PRES TD9635_LAT TD9635_LON TD9635_WIND TD9635_PRES TD9635_ROCI NEUMANN_LAT NEUMANN_LON NEUMANN_CLASS NEUMANN_WIND NEUMANN_PRES MLC_LAT MLC_LON MLC_CLASS MLC_WIND MLC_PRES USA_GUST BOM_GUST BOM_GUST_PER REUNION_GUST REUNION_GUST_PER USA_SEAHGT USA_SEARAD_NE USA_SEARAD_SE USA_SEARAD_SW USA_SEARAD_NW STORM_SPEED STORM_DIR
1984281N24291 1984 92 NA NA JOSEPHINE 1984-10-07 06:00:00 SS 24.1000 -68.9000 25 1010 hurdat_atl main 511 505 O_____________ hurdat_atl AL161984 24.1000 -68.9000 SD 25 1010 -2 5 258
1984281N24291 1984 92 NA NA JOSEPHINE 1984-10-07 09:00:00 SS 24.0526 -69.1500 main 501 484 P_____________ AL161984 24.0526 -69.1500 SD 25 1009 -2 5 258
1984281N24291 1984 92 NA NA JOSEPHINE 1984-10-07 12:00:00 SS 24.0000 -69.4000 25 1008 hurdat_atl main 484 461 O_____________ hurdat_atl AL161984 24.0000 -69.4000 SD 25 1008 -2 5 256
1984281N24291 1984 92 NA NA JOSEPHINE 1984-10-07 15:00:00 SS 23.9425 -69.6500 main 453 438 P_____________ AL161984 23.9425 -69.6500 SD 25 1008 -2 5 258
1984281N24291 1984 92 NA NA JOSEPHINE 1984-10-07 18:00:00 SS 23.9000 -69.9000 25 1008 hurdat_atl main 438 423 O_____________ hurdat_atl AL161984 23.9000 -69.9000 SD 25 1008 -2 5 263
1984281N24291 1984 92 NA NA JOSEPHINE 1984-10-07 21:00:00 SS 23.8850 -70.1500 main 423 402 P_____________ AL161984 23.8850 -70.1500 SD 27 1007 -2 5 270
1984281N24291 1984 92 NA NA JOSEPHINE 1984-10-08 00:00:00 SS 23.9000 -70.4000 30 1006 hurdat_atl main 402 389 O_____________ hurdat_atl AL161984 23.9000 -70.4000 SD 30 1006 -2 5 277
1984281N24291 1984 92 NA NA JOSEPHINE 1984-10-08 03:00:00 SS 23.9425 -70.6500 main 389 380 P_____________ AL161984 23.9425 -70.6500 SD 30 1005 -2 5 282
1984281N24291 1984 92 NA NA JOSEPHINE 1984-10-08 06:00:00 SS 24.0000 -70.9000 30 1004 hurdat_atl main 380 368 O_____________ hurdat_atl AL161984 24.0000 -70.9000 SD 30 1004 -2 5 282
1984281N24291 1984 92 NA NA JOSEPHINE 1984-10-08 09:00:00 SS 24.0425 -71.1501 main 363 363 P_____________ AL161984 24.0425 -71.1501 SD 35 1003 -2 5 282
1984281N24291 1984 92 NA NA JOSEPHINE 1984-10-08 12:00:00 TS 24.1000 -71.4000 40 1002 hurdat_atl main 363 354 O_____________ hurdat_atl AL161984 24.1000 -71.4000 TS 40 1002 0 5 287
1984281N24291 1984 92 NA NA JOSEPHINE 1984-10-08 15:00:00 TS 24.1850 -71.6650 main 360 357 P_____________ AL161984 24.1850 -71.6650 TS 45 1000 0 5 294
1984281N24291 1984 92 NA NA JOSEPHINE 1984-10-08 18:00:00 TS 24.3000 -71.9000 50 998 hurdat_atl main 364 361 O_____________ hurdat_atl AL161984 24.3000 -71.9000 TS 50 998 0 5 301
1984281N24291 1984 92 NA NA JOSEPHINE 1984-10-08 21:00:00 TS 24.4200 -72.0875 main 369 369 P_____________ AL161984 24.4200 -72.0875 TS 52 996 0 4 318
1984281N24291 1984 92 NA NA JOSEPHINE 1984-10-09 00:00:00 TS 24.6000 -72.2000 55 995 hurdat_atl main 388 388 O_____________ hurdat_atl AL161984 24.6000 -72.2000 TS 55 995 0 5 344
1984281N24291 1984 92 NA NA JOSEPHINE 1984-10-09 03:00:00 TS 24.8775 -72.2300 main 421 421 P_____________ AL161984 24.8775 -72.2300 TS 57 994 0 6 1
1984281N24291 1984 92 NA NA JOSEPHINE 1984-10-09 06:00:00 TS 25.2000 -72.2000 60 994 hurdat_atl main 454 454 O_____________ hurdat_atl AL161984 25.2000 -72.2000 TS 60 994 0 6 7
1984281N24291 1984 92 NA NA JOSEPHINE 1984-10-09 09:00:00 TS 25.5000 -72.1501 main 487 487 P_____________ AL161984 25.5000 -72.1501 TS 60 994 0 6 8
1984281N24291 1984 92 NA NA JOSEPHINE 1984-10-09 12:00:00 TS 25.8000 -72.1000 60 995 hurdat_atl main 522 522 O_____________ hurdat_atl AL161984 25.8000 -72.1000 TS 60 995 0 6 6
1984281N24291 1984 92 NA NA JOSEPHINE 1984-10-09 15:00:00 TS 26.1075 -72.0850 main 555 555 P_____________ AL161984 26.1075 -72.0850 TS 60 994 0 6 1
1984281N24291 1984 92 NA NA JOSEPHINE 1984-10-09 18:00:00 TS 26.4000 -72.1000 60 993 hurdat_atl main 588 588 O_____________ hurdat_atl AL161984 26.4000 -72.1000 TS 60 993 0 6 356
1984281N24291 1984 92 NA NA JOSEPHINE 1984-10-09 21:00:00 TS 26.6725 -72.1350 main 612 607 P_____________ AL161984 26.6725 -72.1350 TS 60 991 0 5 350
1984281N24291 1984 92 NA NA JOSEPHINE 1984-10-10 00:00:00 TS 26.9000 -72.2000 60 990 hurdat_atl main 611 606 O_____________ hurdat_atl AL161984 26.9000 -72.2000 TS 60 990 0 4 340
1984281N24291 1984 92 NA NA JOSEPHINE 1984-10-10 03:00:00 TS 27.0650 -72.3000 main 610 601 P_____________ AL161984 27.0650 -72.3000 TS 62 988 0 4 330
1984281N24291 1984 92 NA NA JOSEPHINE 1984-10-10 06:00:00 TS 27.2000 -72.4000 65 987 hurdat_atl main 605 600 O_____________ hurdat_atl AL161984 27.2000 -72.4000 HU 65 987 1 3 332
1984281N24291 1984 92 NA NA JOSEPHINE 1984-10-10 09:00:00 TS 27.3350 -72.4576 main 600 600 P_____________ AL161984 27.3350 -72.4576 HU 67 987 1 3 344
1984281N24291 1984 92 NA NA JOSEPHINE 1984-10-10 12:00:00 TS 27.5000 -72.5000 70 987 hurdat_atl main 609 609 O_____________ hurdat_atl AL161984 27.5000 -72.5000 HU 70 987 1 4 347
1984281N24291 1984 92 NA NA JOSEPHINE 1984-10-10 15:00:00 TS 27.7275 -72.5649 main 610 610 P_____________ AL161984 27.7275 -72.5649 HU 70 986 1 5 350
1984281N24291 1984 92 NA NA JOSEPHINE 1984-10-10 18:00:00 TS 28.0000 -72.6000 70 985 hurdat_atl main 626 626 O_____________ hurdat_atl AL161984 28.0000 -72.6000 HU 70 985 1 6 357
1984281N24291 1984 92 NA NA JOSEPHINE 1984-10-10 21:00:00 TS 28.2850 -72.5651 main 644 644 P_____________ AL161984 28.2850 -72.5651 HU 72 984 1 6 8
1984281N24291 1984 92 NA NA JOSEPHINE 1984-10-11 00:00:00 TS 28.6000 -72.5000 75 983 hurdat_atl main 670 670 O_____________ hurdat_atl AL161984 28.6000 -72.5000 HU 75 983 1 7 8
1984281N24291 1984 92 NA NA JOSEPHINE 1984-10-11 03:00:00 TS 28.9425 -72.4648 main 690 690 P_____________ AL161984 28.9425 -72.4648 HU 77 981 1 7 7
1984281N24291 1984 92 NA NA JOSEPHINE 1984-10-11 06:00:00 TS 29.3000 -72.4000 80 979 hurdat_atl main 715 692 O_____________ hurdat_atl AL161984 29.3000 -72.4000 HU 80 979 1 7 14
1984281N24291 1984 92 NA NA JOSEPHINE 1984-10-11 09:00:00 TS 29.6500 -72.2576 main 682 666 P_____________ AL161984 29.6500 -72.2576 HU 82 976 1 7 20
1984281N24291 1984 92 NA NA JOSEPHINE 1984-10-11 12:00:00 TS 30.0000 -72.1000 85 974 hurdat_atl main 666 646 O_____________ hurdat_atl AL161984 30.0000 -72.1000 HU 85 974 2 7 18
1984281N24291 1984 92 NA NA JOSEPHINE 1984-10-11 15:00:00 TS 30.3500 -71.9923 main 646 619 P_____________ AL161984 30.3500 -71.9923 HU 85 972 2 7 14
1984281N24291 1984 92 NA NA JOSEPHINE 1984-10-11 18:00:00 TS 30.7000 -71.9000 85 971 hurdat_atl main 619 601 O_____________ hurdat_atl AL161984 30.7000 -71.9000 HU 85 971 2 7 14
1984281N24291 1984 92 NA NA JOSEPHINE 1984-10-11 21:00:00 TS 31.0425 -71.7851 main 601 578 P_____________ AL161984 31.0425 -71.7851 HU 87 970 2 7 14
1984281N24291 1984 92 NA NA JOSEPHINE 1984-10-12 00:00:00 TS 31.4000 -71.7000 90 970 hurdat_atl main 578 548 O_____________ hurdat_atl AL161984 31.4000 -71.7000 HU 90 970 2 8 7
1984281N24291 1984 92 NA NA JOSEPHINE 1984-10-12 03:00:00 TS 31.7925 -71.6774 main 548 521 P_____________ AL161984 31.7925 -71.6774 HU 90 971 2 8 1
1984281N24291 1984 92 NA NA JOSEPHINE 1984-10-12 06:00:00 TS 32.2000 -71.7000 90 973 hurdat_atl main 521 487 O_____________ hurdat_atl AL161984 32.2000 -71.7000 HU 90 973 2 8 355
1984281N24291 1984 92 NA NA JOSEPHINE 1984-10-12 09:00:00 TS 32.6075 -71.7572 main 487 460 P_____________ AL161984 32.6075 -71.7572 HU 90 975 2 8 354
1984281N24291 1984 92 NA NA JOSEPHINE 1984-10-12 12:00:00 TS 33.0000 -71.8000 90 977 hurdat_atl main 460 438 O_____________ hurdat_atl AL161984 33.0000 -71.8000 HU 90 977 2 8 358
1984281N24291 1984 92 NA NA JOSEPHINE 1984-10-12 15:00:00 TS 33.3650 -71.7800 main 430 418 P_____________ AL161984 33.3650 -71.7800 HU 90 976 2 7 6
1984281N24291 1984 92 NA NA JOSEPHINE 1984-10-12 18:00:00 TS 33.7000 -71.7000 90 976 hurdat_atl main 418 407 O_____________ hurdat_atl AL161984 33.7000 -71.7000 HU 90 976 2 7 16
1984281N24291 1984 92 NA NA JOSEPHINE 1984-10-12 21:00:00 TS 34.0150 -71.5576 main 407 404 P_____________ AL161984 34.0150 -71.5576 HU 87 973 2 7 22
1984281N24291 1984 92 NA NA JOSEPHINE 1984-10-13 00:00:00 TS 34.3000 -71.4000 85 971 hurdat_atl main 408 403 O_____________ hurdat_atl AL161984 34.3000 -71.4000 HU 85 971 2 6 24
1984281N24291 1984 92 NA NA JOSEPHINE 1984-10-13 03:00:00 TS 34.5500 -71.2700 main 407 403 P_____________ AL161984 34.5500 -71.2700 HU 85 972 2 5 18
1984281N24291 1984 92 NA NA JOSEPHINE 1984-10-13 06:00:00 TS 34.8000 -71.2000 85 973 hurdat_atl main 404 396 O_____________ hurdat_atl AL161984 34.8000 -71.2000 HU 85 973 2 5 6
1984281N24291 1984 92 NA NA JOSEPHINE 1984-10-13 09:00:00 TS 35.0924 -71.2051 main 396 381 P_____________ AL161984 35.0924 -71.2051 HU 82 974 1 6 352
1984281N24291 1984 92 NA NA JOSEPHINE 1984-10-13 12:00:00 TS 35.4000 -71.3000 80 975 hurdat_atl main 381 360 O_____________ hurdat_atl AL161984 35.4000 -71.3000 HU 80 975 1 7 339
1984281N24291 1984 92 NA NA JOSEPHINE 1984-10-13 15:00:00 TS 35.7001 -71.4922 main 360 341 P_____________ AL161984 35.7001 -71.4922 HU 75 974 1 7 332
1984281N24291 1984 92 NA NA JOSEPHINE 1984-10-13 18:00:00 TS 36.0000 -71.7000 70 973 hurdat_atl main 342 333 O_____________ hurdat_atl AL161984 36.0000 -71.7000 HU 70 973 1 7 336
1984281N24291 1984 92 NA NA JOSEPHINE 1984-10-13 21:00:00 TS 36.3300 -71.8450 main 336 327 P_____________ AL161984 36.3300 -71.8450 HU 67 975 1 6 345
1984281N24291 1984 92 NA NA JOSEPHINE 1984-10-14 00:00:00 TS 36.6000 -71.9000 65 977 hurdat_atl main 334 333 O_____________ hurdat_atl AL161984 36.6000 -71.9000 HU 65 977 1 4 0
1984281N24291 1984 92 NA NA JOSEPHINE 1984-10-14 03:00:00 TS 36.7600 -71.8378 main 334 334 P_____________ AL161984 36.7600 -71.8378 HU 65 976 1 3 39
1984281N24291 1984 92 NA NA JOSEPHINE 1984-10-14 06:00:00 TS 36.8000 -71.7000 65 975 hurdat_atl main 342 342 O_____________ hurdat_atl AL161984 36.8000 -71.7000 HU 65 975 1 2 96
1984281N24291 1984 92 NA NA JOSEPHINE 1984-10-14 09:00:00 TS 36.7374 -71.5800 main 355 355 P_____________ AL161984 36.7374 -71.5800 HU 67 973 1 3 130
1984281N24291 1984 92 NA NA JOSEPHINE 1984-10-14 12:00:00 TS 36.6000 -71.4000 70 971 hurdat_atl main 376 376 O_____________ hurdat_atl AL161984 36.6000 -71.4000 HU 70 971 1 4 129
1984281N24291 1984 92 NA NA JOSEPHINE 1984-10-14 15:00:00 TS 36.4648 -71.1527 main 392 392 P_____________ AL161984 36.4648 -71.1527 HU 70 969 1 6 122
1984281N24291 1984 92 NA NA JOSEPHINE 1984-10-14 18:00:00 TS 36.3000 -70.8000 70 968 hurdat_atl main 425 425 O_____________ hurdat_atl AL161984 36.3000 -70.8000 HU 70 968 1 8 123
1984281N24291 1984 92 NA NA JOSEPHINE 1984-10-14 21:00:00 TS 36.0547 -70.3588 main 459 459 P_____________ AL161984 36.0547 -70.3588 HU 70 966 1 9 116
1984281N24291 1984 92 NA NA JOSEPHINE 1984-10-15 00:00:00 TS 35.9000 -69.8000 70 965 hurdat_atl main 512 512 O_____________ hurdat_atl AL161984 35.9000 -69.8000 HU 70 965 1 10 95
1984281N24291 1984 92 NA NA JOSEPHINE 1984-10-15 03:00:00 TS 35.9745 -69.1600 main 566 566 P_____________ AL161984 35.9745 -69.1600 HU 67 965 1 12 75
1984281N24291 1984 92 NA NA JOSEPHINE 1984-10-15 06:00:00 TS 36.2000 -68.4000 65 966 hurdat_atl main 622 616 O_____________ hurdat_atl AL161984 36.2000 -68.4000 HU 65 966 1 14 70
1984281N24291 1984 92 NA NA JOSEPHINE 1984-10-15 09:00:00 TS 36.4625 -67.5297 main 617 613 P_____________ AL161984 36.4625 -67.5297 HU 65 969 1 16 67
1984281N24291 1984 92 NA NA JOSEPHINE 1984-10-15 12:00:00 TS 36.8000 -66.6000 65 973 hurdat_atl main 618 615 O_____________ hurdat_atl AL161984 36.8000 -66.6000 HU 65 973 1 16 64
1984281N24291 1984 92 NA NA JOSEPHINE 1984-10-15 15:00:00 TS 37.1918 -65.6999 main 621 617 P_____________ AL161984 37.1918 -65.6999 HU 65 972 1 16 61
1984281N24291 1984 92 NA NA JOSEPHINE 1984-10-15 18:00:00 TS 37.6000 -64.8000 65 971 hurdat_atl main 636 631 O_____________ hurdat_atl AL161984 37.6000 -64.8000 HU 65 971 1 16 62
1984281N24291 1984 92 NA NA JOSEPHINE 1984-10-15 21:00:00 TS 37.9421 -63.8836 main 634 607 P_____________ AL161984 37.9421 -63.8836 HU 65 972 1 16 64
1984281N24291 1984 92 NA NA JOSEPHINE 1984-10-16 00:00:00 TS 38.3000 -63.0000 65 973 hurdat_atl main 609 589 O_____________ hurdat_atl AL161984 38.3000 -63.0000 HU 65 973 1 16 59
1984281N24291 1984 92 NA NA JOSEPHINE 1984-10-16 03:00:00 TS 38.7490 -62.1922 main 593 573 P_____________ AL161984 38.7490 -62.1922 HU 65 975 1 15 54
1984281N24291 1984 92 NA NA JOSEPHINE 1984-10-16 06:00:00 TS 39.2000 -61.4000 65 977 hurdat_atl main 577 573 O_____________ hurdat_atl AL161984 39.2000 -61.4000 HU 65 977 1 15 57
1984281N24291 1984 92 NA NA JOSEPHINE 1984-10-16 09:00:00 TS 39.5648 -60.5415 main 587 586 P_____________ AL161984 39.5648 -60.5415 HU 65 979 1 15 62
1984281N24291 1984 92 NA NA JOSEPHINE 1984-10-16 12:00:00 TS 39.9000 -59.7000 65 982 hurdat_atl main 591 579 O_____________ hurdat_atl AL161984 39.9000 -59.7000 HU 65 982 1 14 61
1984281N24291 1984 92 NA NA JOSEPHINE 1984-10-16 15:00:00 TS 40.2491 -58.9414 main 584 559 P_____________ AL161984 40.2491 -58.9414 HU 65 984 1 13 59
1984281N24291 1984 92 NA NA JOSEPHINE 1984-10-16 18:00:00 TS 40.6000 -58.2000 65 986 hurdat_atl main 562 553 O_____________ hurdat_atl AL161984 40.6000 -58.2000 HU 65 986 1 14 59
1984281N24291 1984 92 NA NA JOSEPHINE 1984-10-16 21:00:00 TS 40.9494 -57.4141 main 564 554 P_____________ AL161984 40.9494 -57.4141 HU 65 987 1 14 60
1984281N24291 1984 92 NA NA JOSEPHINE 1984-10-17 00:00:00 TS 41.3000 -56.6000 65 988 hurdat_atl main 565 562 O_____________ hurdat_atl AL161984 41.3000 -56.6000 HU 65 988 1 15 62
1984281N24291 1984 92 NA NA JOSEPHINE 1984-10-17 03:00:00 TS 41.6280 -55.7045 main 578 521 P_____________ AL161984 41.6280 -55.7045 HU 62 989 0 14 61
1984281N24291 1984 92 NA NA JOSEPHINE 1984-10-17 06:00:00 TS 42.0000 -54.9000 60 990 hurdat_atl main 521 459 O_____________ hurdat_atl AL161984 42.0000 -54.9000 TS 60 990 0 14 51
1984281N24291 1984 92 NA NA JOSEPHINE 1984-10-17 09:00:00 TS 42.5070 -54.2586 main 459 400 P_____________ AL161984 42.5070 -54.2586 TS 60 991 0 12 36
1984281N24291 1984 92 NA NA JOSEPHINE 1984-10-17 12:00:00 TS 43.0000 -53.9000 60 992 hurdat_atl main 400 367 O_____________ hurdat_atl AL161984 43.0000 -53.9000 TS 60 992 0 9 17
1984281N24291 1984 92 NA NA JOSEPHINE 1984-10-17 15:00:00 TS 43.3447 -53.9008 main 367 335 P_____________ AL161984 43.3447 -53.9008 TS 57 992 0 6 346
1984281N24291 1984 92 NA NA JOSEPHINE 1984-10-17 18:00:00 TS 43.6000 -54.1000 55 993 hurdat_atl main 335 314 O_____________ hurdat_atl AL161984 43.6000 -54.1000 TS 55 993 0 5 335
1984281N24291 1984 92 NA NA JOSEPHINE 1984-10-17 21:00:00 TS 43.8448 -54.2125 main 314 294 P_____________ AL161984 43.8448 -54.2125 TS 52 993 0 5 332
1984281N24291 1984 92 NA NA JOSEPHINE 1984-10-18 00:00:00 TS 44.0000 -54.4000 50 994 hurdat_atl main 295 295 O_____________ hurdat_atl AL161984 44.0000 -54.4000 TS 50 994 0 4 297
1984281N24291 1984 92 NA NA JOSEPHINE 1984-10-18 03:00:00 TS 44.0225 -54.7055 main 301 301 P_____________ AL161984 44.0225 -54.7055 TS 50 994 0 5 270
1984281N24291 1984 92 NA NA JOSEPHINE 1984-10-18 06:00:00 TS 44.0000 -55.1000 50 994 hurdat_atl main 311 300 O_____________ hurdat_atl AL161984 44.0000 -55.1000 TS 50 994 0 6 273
1984281N24291 1984 92 NA NA JOSEPHINE 1984-10-18 09:00:00 TS 44.0573 -55.5195 main 300 300 P_____________ AL161984 44.0573 -55.5195 TS 50 994 0 7 279
1984281N24291 1984 92 NA NA JOSEPHINE 1984-10-18 12:00:00 TS 44.1000 -56.0000 50 995 hurdat_atl main 300 293 O_____________ hurdat_atl AL161984 44.1000 -56.0000 TS 50 995 0 8 277
1984281N24291 1984 92 NA NA JOSEPHINE 1984-10-18 15:00:00 TS 44.1479 -56.5714 main 308 307 P_____________ AL161984 44.1479 -56.5714 TS 47 995 0 8 263
1984281N24291 1984 92 NA NA JOSEPHINE 1984-10-18 18:00:00 ET 44.0000 -57.1000 45 995 hurdat_atl main 308 302 O_____________ hurdat_atl AL161984 44.0000 -57.1000 EX 45 995 -4 10 228
1984281N24291 1984 92 NA NA JOSEPHINE 1984-10-18 21:00:00 ET 43.5121 -57.5541 main 321 321 P_____________ AL161984 43.5121 -57.5541 EX 45 995 -4 13 200
1984281N24291 1984 92 NA NA JOSEPHINE 1984-10-19 00:00:00 ET 42.8000 -57.7000 45 995 hurdat_atl main 377 377 O_____________ hurdat_atl AL161984 42.8000 -57.7000 EX 45 995 -4 16 176
1984281N24291 1984 92 NA NA JOSEPHINE 1984-10-19 03:00:00 ET 41.9544 -57.4190 main 463 463 P_____________ AL161984 41.9544 -57.4190 EX 45 995 -4 17 157
1984281N24291 1984 92 NA NA JOSEPHINE 1984-10-19 06:00:00 ET 41.2000 -56.8000 45 995 hurdat_atl main 564 564 O_____________ hurdat_atl AL161984 41.2000 -56.8000 EX 45 995 -4 16 139
1984281N24291 1984 92 NA NA JOSEPHINE 1984-10-19 09:00:00 ET 40.7725 -56.0323 main 640 640 P_____________ AL161984 40.7725 -56.0323 EX 42 995 -4 14 115
1984281N24291 1984 92 NA NA JOSEPHINE 1984-10-19 12:00:00 ET 40.6000 -55.1000 40 995 hurdat_atl main 677 668 O_____________ hurdat_atl AL161984 40.6000 -55.1000 EX 40 995 -4 14 98
1984281N24291 1984 92 NA NA JOSEPHINE 1984-10-19 15:00:00 ET 40.5668 -54.1380 main 668 655 P_____________ AL161984 40.5668 -54.1380 EX 40 995 -4 15 86
1984281N24291 1984 92 NA NA JOSEPHINE 1984-10-19 18:00:00 ET 40.7000 -53.1000 40 995 hurdat_atl main 655 637 O_____________ hurdat_atl AL161984 40.7000 -53.1000 EX 40 995 -4 16 78
1984281N24291 1984 92 NA NA JOSEPHINE 1984-10-19 21:00:00 ET 40.9115 -52.0301 main 640 625 P_____________ AL161984 40.9115 -52.0301 EX 37 995 -4 17 73
1984281N24291 1984 92 NA NA JOSEPHINE 1984-10-20 00:00:00 ET 41.2000 -50.9000 35 995 hurdat_atl main 627 621 O_____________ hurdat_atl AL161984 41.2000 -50.9000 EX 35 995 -4 18 71
1984281N24291 1984 92 NA NA JOSEPHINE 1984-10-20 03:00:00 ET 41.5057 -49.7449 main 631 628 P_____________ AL161984 41.5057 -49.7449 EX 32 995 -4 19 72
1984281N24291 1984 92 NA NA JOSEPHINE 1984-10-20 06:00:00 ET 41.8000 -48.5000 30 996 hurdat_atl main 650 650 O_____________ hurdat_atl AL161984 41.8000 -48.5000 EX 30 996 -4 20 76
1984281N24291 1984 92 NA NA JOSEPHINE 1984-10-20 09:00:00 ET 41.9991 -47.1348 main 703 703 P_____________ AL161984 41.9991 -47.1348 EX 30 996 -4 21 79
1984281N24291 1984 92 NA NA JOSEPHINE 1984-10-20 12:00:00 ET 42.2000 -45.7000 30 997 hurdat_atl main 768 768 O_____________ hurdat_atl AL161984 42.2000 -45.7000 EX 30 997 -4 22 77
1984281N24291 1984 92 NA NA JOSEPHINE 1984-10-20 15:00:00 ET 42.4898 -44.2872 main 834 834 P_____________ AL161984 42.4898 -44.2872 EX 30 997 -4 22 74
1984281N24291 1984 92 NA NA JOSEPHINE 1984-10-20 18:00:00 ET 42.8000 -42.8000 30 997 hurdat_atl main 915 915 O_____________ hurdat_atl AL161984 42.8000 -42.8000 EX 30 997 -4 23 76
1984281N24291 1984 92 NA NA JOSEPHINE 1984-10-20 21:00:00 ET 43.0706 -41.1895 main 1010 1010 P_____________ AL161984 43.0706 -41.1895 EX 30 997 -4 25 78
1984281N24291 1984 92 NA NA JOSEPHINE 1984-10-21 00:00:00 ET 43.3000 -39.5000 30 998 hurdat_atl main 1118 O_____________ hurdat_atl AL161984 43.3000 -39.5000 EX 30 998 -4 25 79

IBTrACS Databaseについて

本データベースは、米国NOAAが公開する1842年以降の世界の熱帯低気圧のベストトラックデータアーカイブInternational Best Track Archive for Climate Stewardship (IBTrACS)を、ウェブで閲覧しやすい形式に変換したものです。

最終更新日:2021-10-21